Carbondale, CO

4:40 AM MDT on July 31, 2016 (GMT -0600)
Spring Park Ridge | | Change Station

Elev 7628 ft 39.45 °N, 107.12 °W | Updated 1 day ago

Partly Cloudy
Partly Cloudy
50 °F
Feels Like 50 °F
N
3
Wind Variable Wind from SSW
Gusts mph

Today
High -- | Low -- °F
--% Chance of Precip.
Yesterday
High -- | Low -- °F
Precip. -- in
Pressure 30.19 in
Visibility 10.0 miles
Clouds Mostly Cloudy 12000 ft
Dew Point 35 °F
Humidity 56%
Rainfall in
Snow Depth Not available.
6:07 AM 8:21 PM
Waning Crescent, 7% visible
METAR KEGE 311035Z AUTO 00000KT 10SM BKN120 14/04 A3019 RMK AO1
Pressure 30.19 in
Visibility 10.0 miles
Clouds Mostly Cloudy 12000 ft
Dew Point 35 °F
Humidity 56%
Rainfall in
Snow Depth Not available.
6:07 AM 8:21 PM
Waning Crescent, 7% visible
METAR KEGE 311035Z AUTO 00000KT 10SM BKN120 14/04 A3019 RMK AO1

10-Day Weather Forecast

Almanac

Astronomy

Jul. 31, 2016 Rise Set
Actual Time
Civil Twilight
Nautical Twilight
Astronomical Twilight
Moon
Length of Visible Light
Length of Day
Tomorrow will be .
, % of the Moon is Illuminated

Today's Extremes

State Highs State Lows

Community

WunderPhotos

Upload Photos

1,928,783 photos uploaded!

WunderBlog® & News

Nearby

Air Quality

  Air Quality AQ Index Pollutant
Not available.

Snow Depth

Station Depth Elevation

Earthquake Activity

City Distance Mag. Time & Date
Minimum magnitude displayed is 2.5.

Coastal Water Temperatures

Place Temperature

Stations

Nearby Weather Stations

Station Location Temp. Windchill Dew Point Humidity Wind Precip. Elev Updated Type
                   

Watches & Warnings

There are currently no watches in effect.